Time;durP1;ratioP1;P1;durP2;ratioP2;P2;SDS_P1;SDS_P2;PMS_P1;PMS_P2;Temp;Humidity;BMP_temperature;BMP_pressure;BME280_temperature;BME280_humidity;BME280_pressure;Samples;Min_cycle;Max_cycle;Signal;HPM_P1;HPM_P2
2021/01/04 00:01:07;;;;;;;11.13;3.38;;;;;;;;;;5063536;28;20045;-75
2021/01/04 00:03:43;;;;;;;10.80;3.17;;;;;;;;;;5061684;28;20126;-75
2021/01/04 00:06:29;;;;;;;11.82;4.00;;;;;;;;;;5064195;28;20048;-76
2021/01/04 00:09:05;;;;;;;14.93;3.95;;;;;;;;;;5066228;28;20048;-75
2021/01/04 00:11:31;;;;;;;14.75;3.78;;;;;;;;;;5061284;28;20074;-76
2021/01/04 00:14:09;;;;;;;18.00;4.07;;;;;;;;;;5056581;28;20135;-76
2021/01/04 00:16:49;;;;;;;17.45;3.72;;;;;;;;;;5056150;28;20045;-75
2021/01/04 00:19:20;;;;;;;15.32;4.85;;;;;;;;;;5064154;28;20044;-75
2021/01/04 00:21:47;;;;;;;17.15;4.45;;;;;;;;;;5057185;28;20102;-75
2021/01/04 00:24:24;;;;;;;14.23;3.75;;;;;;;;;;5056165;28;20045;-75
2021/01/04 00:26:52;;;;;;;14.15;4.63;;;;;;;;;;5065542;28;20378;-76
2021/01/04 00:29:19;;;;;;;14.98;3.88;;;;;;;;;;5067172;28;20097;-75
2021/01/04 00:31:47;;;;;;;14.73;3.80;;;;;;;;;;5059628;28;20123;-75
2021/01/04 00:34:16;;;;;;;16.45;3.83;;;;;;;;;;5060996;28;20055;-75
2021/01/04 00:37:02;;;;;;;12.75;3.90;;;;;;;;;;5060708;28;20052;-75
2021/01/04 00:39:50;;;;;;;12.50;3.60;;;;;;;;;;5057029;28;20052;-76
2021/01/04 00:42:25;;;;;;;12.73;4.45;;;;;;;;;;5055720;28;20041;-76
2021/01/04 00:44:51;;;;;;;16.25;4.03;;;;;;;;;;5054239;28;20033;-76
2021/01/04 00:47:37;;;;;;;13.70;4.25;;;;;;;;;;5062741;28;20060;-76
2021/01/04 00:50:08;;;;;;;17.58;3.33;;;;;;;;;;5048897;28;20041;-76
2021/01/04 00:52:44;;;;;;;10.20;3.58;;;;;;;;;;5063316;28;20082;-75
2021/01/04 00:55:16;;;;;;;14.50;3.47;;;;;;;;;;5066409;28;20048;-76
2021/01/04 00:57:56;;;;;;;11.77;3.60;;;;;;;;;;5059810;28;20036;-76
2021/01/04 01:00:24;;;;;;;13.32;4.20;;;;;;;;;;5063353;28;20044;-75
2021/01/04 01:03:04;;;;;;;12.43;3.72;;;;;;;;;;5064105;28;20510;-75
2021/01/04 01:05:30;;;;;;;12.70;3.85;;;;;;;;;;5057323;28;20044;-76
2021/01/04 01:07:57;;;;;;;22.95;4.13;;;;;;;;;;5061319;28;20055;-76
2021/01/04 01:10:25;;;;;;;14.18;3.70;;;;;;;;;;5055901;28;20407;-75
2021/01/04 01:12:59;;;;;;;19.25;4.22;;;;;;;;;;5054130;28;20133;-75
2021/01/04 01:15:25;;;;;;;;;;;;;;;;;;5058254;28;20124;-75
2021/01/04 01:18:07;;;;;;;13.77;3.83;;;;;;;;;;5066454;28;20018;-76
2021/01/04 01:20:37;;;;;;;19.52;4.78;;;;;;;;;;5063956;28;20036;-76
2021/01/04 01:23:03;;;;;;;17.67;4.07;;;;;;;;;;5061592;28;20044;-75
2021/01/04 01:25:32;;;;;;;15.93;3.53;;;;;;;;;;5065386;28;20032;-76
2021/01/04 01:28:30;;;;;;;15.43;4.18;;;;;;;;;;5060910;28;20093;-76
2021/01/04 01:31:10;;;;;;;11.38;3.75;;;;;;;;;;5062462;28;20068;-76
2021/01/04 01:33:37;;;;;;;12.73;3.13;;;;;;;;;;5059507;28;20051;-76
2021/01/04 01:36:16;;;;;;;12.25;2.97;;;;;;;;;;5056023;28;20043;-76
2021/01/04 01:38:51;;;;;;;17.02;3.50;;;;;;;;;;5061067;28;20064;-75
2021/01/04 01:41:36;;;;;;;7.43;2.88;;;;;;;;;;5059699;28;20040;-76
2021/01/04 01:44:06;;;;;;;18.70;3.40;;;;;;;;;;5057262;28;20627;-75
2021/01/04 01:46:38;;;;;;;13.15;3.10;;;;;;;;;;5054084;28;20057;-76
2021/01/04 01:49:23;;;;;;;12.15;2.90;;;;;;;;;;5055610;28;20068;-75
2021/01/04 01:52:02;;;;;;;16.65;3.38;;;;;;;;;;5056597;28;20094;-75
2021/01/04 01:54:38;;;;;;;10.48;3.92;;;;;;;;;;5064261;28;20048;-76
2021/01/04 01:57:29;;;;;;;10.05;3.75;;;;;;;;;;5058037;28;20369;-75
2021/01/04 02:00:03;;;;;;;13.27;3.58;;;;;;;;;;5063938;28;20041;-75
2021/01/04 02:02:29;;;;;;;;;;;;;;;;;;5072890;28;20130;-76
2021/01/04 02:05:16;;;;;;;14.45;3.63;;;;;;;;;;5057920;28;19928;-75
2021/01/04 02:07:48;;;;;;;15.07;3.80;;;;;;;;;;5059168;28;20174;-75
2021/01/04 02:10:17;;;;;;;15.73;4.15;;;;;;;;;;5062489;28;20123;-75
2021/01/04 02:12:44;;;;;;;21.08;4.70;;;;;;;;;;5059258;28;20403;-75
2021/01/04 02:15:14;;;;;;;13.80;3.72;;;;;;;;;;5055811;28;20041;-75
2021/01/04 02:18:01;;;;;;;20.58;4.68;;;;;;;;;;5053095;28;20103;-75
2021/01/04 02:20:48;;;;;;;18.70;3.88;;;;;;;;;;5062022;28;20054;-75
2021/01/04 02:23:22;;;;;;;14.20;3.90;;;;;;;;;;5060890;28;20090;-75
2021/01/04 02:25:49;;;;;;;13.68;4.70;;;;;;;;;;5061569;28;20037;-75
2021/01/04 02:28:19;;;;;;;15.00;3.63;;;;;;;;;;5063850;28;20045;-75
2021/01/04 02:30:47;;;;;;;15.63;3.97;;;;;;;;;;5057197;28;20456;-76
2021/01/04 02:33:14;;;;;;;16.38;4.07;;;;;;;;;;5061683;28;20045;-75
2021/01/04 02:35:41;;;;;;;11.15;3.20;;;;;;;;;;5062921;28;20044;-75
2021/01/04 02:38:08;;;;;;;19.02;4.43;;;;;;;;;;5062878;28;20136;-76
2021/01/04 02:40:34;;;;;;;11.45;3.30;;;;;;;;;;5064867;28;20047;-76
2021/01/04 02:43:00;;;;;;;15.45;4.97;;;;;;;;;;5065645;28;20040;-75
2021/01/04 02:45:29;;;;;;;15.18;3.45;;;;;;;;;;5065375;28;20068;-76
2021/01/04 02:47:56;;;;;;;18.75;4.20;;;;;;;;;;5065120;28;20435;-76
2021/01/04 02:50:30;;;;;;;12.32;3.90;;;;;;;;;;5063525;28;20170;-75
2021/01/04 02:53:15;;;;;;;10.52;3.17;;;;;;;;;;5063980;28;20052;-75
2021/01/04 02:55:46;;;;;;;14.10;3.35;;;;;;;;;;5068941;28;20484;-76
2021/01/04 02:58:18;;;;;;;12.98;4.03;;;;;;;;;;5061802;28;20120;-75
2021/01/04 03:00:47;;;;;;;13.35;3.92;;;;;;;;;;5059745;28;20489;-76
2021/01/04 03:03:14;;;;;;;12.20;4.03;;;;;;;;;;5067251;28;20041;-75
2021/01/04 03:05:40;;;;;;;18.23;3.88;;;;;;;;;;5065776;28;20048;-75
2021/01/04 03:08:06;;;;;;;14.70;3.78;;;;;;;;;;5066323;28;20083;-75
2021/01/04 03:10:35;;;;;;;20.10;3.78;;;;;;;;;;5066370;28;20044;-75
2021/01/04 03:13:12;;;;;;;14.32;4.35;;;;;;;;;;5057812;28;20059;-75
2021/01/04 03:15:39;;;;;;;18.75;4.13;;;;;;;;;;5068264;28;20088;-76
2021/01/04 03:18:12;;;;;;;16.13;4.30;;;;;;;;;;5066105;28;20045;-75
2021/01/04 03:20:38;;;;;;;11.02;3.30;;;;;;;;;;5064255;28;20047;-76
2021/01/04 03:23:04;;;;;;;16.35;3.80;;;;;;;;;;5065269;28;20041;-76
2021/01/04 03:25:34;;;;;;;20.08;5.43;;;;;;;;;;5066595;28;20041;-76
2021/01/04 03:28:01;;;;;;;11.88;4.03;;;;;;;;;;5064356;28;20044;-75
2021/01/04 03:30:28;;;;;;;11.35;3.50;;;;;;;;;;5059886;28;20072;-76
2021/01/04 03:32:55;;;;;;;12.35;3.20;;;;;;;;;;5064366;28;20037;-76
2021/01/04 03:35:22;;;;;;;16.05;3.58;;;;;;;;;;5066715;28;20072;-75
2021/01/04 03:37:48;;;;;;;14.27;3.45;;;;;;;;;;5065514;28;20044;-75
2021/01/04 03:40:15;;;;;;;20.73;4.88;;;;;;;;;;5063579;28;20804;-75
2021/01/04 03:42:41;;;;;;;17.05;3.80;;;;;;;;;;5064983;28;20097;-76
2021/01/04 03:45:08;;;;;;;14.02;3.35;;;;;;;;;;5063747;28;20066;-76
2021/01/04 03:47:34;;;;;;;13.90;3.60;;;;;;;;;;5062653;28;20052;-76
2021/01/04 03:50:03;;;;;;;15.45;4.00;;;;;;;;;;5059889;28;20044;-75
2021/01/04 03:52:29;;;;;;;16.23;3.88;;;;;;;;;;5057685;28;20064;-76
2021/01/04 03:54:56;;;;;;;14.00;3.20;;;;;;;;;;5062307;28;20040;-75
2021/01/04 03:57:22;;;;;;;13.23;3.63;;;;;;;;;;5062639;28;20138;-75
2021/01/04 03:59:49;;;;;;;13.50;3.40;;;;;;;;;;5054685;28;20063;-75
2021/01/04 04:02:15;;;;;;;12.88;3.17;;;;;;;;;;5059960;28;20048;-76
2021/01/04 04:04:41;;;;;;;11.93;3.72;;;;;;;;;;5066110;28;20046;-76
2021/01/04 04:07:08;;;;;;;16.10;3.10;;;;;;;;;;5063050;28;20044;-75
2021/01/04 04:09:34;;;;;;;13.73;3.58;;;;;;;;;;5065238;28;20055;-75
2021/01/04 04:12:00;;;;;;;10.32;2.88;;;;;;;;;;5062546;28;20048;-75
2021/01/04 04:14:26;;;;;;;15.57;3.22;;;;;;;;;;5064265;28;20400;-75
2021/01/04 04:16:53;;;;;;;20.42;3.80;;;;;;;;;;5062642;28;20479;-76
2021/01/04 04:19:19;;;;;;;9.98;2.70;;;;;;;;;;5063038;28;20424;-76
2021/01/04 04:21:50;;;;;;;11.18;2.58;;;;;;;;;;5064559;28;20041;-76
2021/01/04 04:24:16;;;;;;;10.27;3.22;;;;;;;;;;5064706;28;20040;-76
2021/01/04 04:26:43;;;;;;;11.77;2.75;;;;;;;;;;5063140;28;20052;-75
2021/01/04 04:29:09;;;;;;;13.95;4.55;;;;;;;;;;5062197;28;20048;-75
2021/01/04 04:31:41;;;;;;;11.43;2.85;;;;;;;;;;5066548;28;20117;-75
2021/01/04 04:34:07;;;;;;;11.70;2.63;;;;;;;;;;5060695;28;20040;-75
2021/01/04 04:36:33;;;;;;;10.63;2.72;;;;;;;;;;5065485;28;20136;-75
2021/01/04 04:38:59;;;;;;;13.90;3.08;;;;;;;;;;5065625;28;20055;-76
2021/01/04 04:41:29;;;;;;;12.45;2.90;;;;;;;;;;5060726;28;20055;-76
2021/01/04 04:44:00;;;;;;;13.07;3.95;;;;;;;;;;5063764;28;20086;-75
2021/01/04 04:46:34;;;;;;;15.00;3.03;;;;;;;;;;5062427;28;20587;-76
2021/01/04 04:49:05;;;;;;;17.63;3.13;;;;;;;;;;5075020;28;20045;-76
2021/01/04 04:51:32;;;;;;;12.70;2.97;;;;;;;;;;5054988;28;20152;-75
2021/01/04 04:54:02;;;;;;;6.72;2.30;;;;;;;;;;5062604;28;20500;-75
2021/01/04 04:56:38;;;;;;;15.70;3.08;;;;;;;;;;5062768;28;20065;-76
2021/01/04 04:59:06;;;;;;;12.48;3.42;;;;;;;;;;5073378;28;20116;-75
2021/01/04 05:01:51;;;;;;;17.08;3.65;;;;;;;;;;5060097;28;20036;-75
2021/01/04 05:04:30;;;;;;;8.65;2.25;;;;;;;;;;5054346;28;20496;-76
2021/01/04 05:07:01;;;;;;;10.80;2.53;;;;;;;;;;5066205;28;20115;-76
2021/01/04 05:09:31;;;;;;;12.35;2.67;;;;;;;;;;5062281;28;20048;-75
2021/01/04 05:12:18;;;;;;;8.73;2.45;;;;;;;;;;5055611;28;20053;-75
2021/01/04 05:14:54;;;;;;;9.40;2.78;;;;;;;;;;5060739;28;20041;-75
2021/01/04 05:17:38;;;;;;;9.65;2.20;;;;;;;;;;5061726;28;20064;-75
2021/01/04 05:20:10;;;;;;;11.82;2.50;;;;;;;;;;5076549;28;20133;-75
2021/01/04 05:22:55;;;;;;;6.75;2.03;;;;;;;;;;5060397;28;20400;-75
2021/01/04 05:25:31;;;;;;;10.55;2.30;;;;;;;;;;5062085;28;20040;-75
2021/01/04 05:28:04;;;;;;;11.95;2.00;;;;;;;;;;5062536;28;20495;-76
2021/01/04 05:30:52;;;;;;;14.50;2.30;;;;;;;;;;5054717;28;20049;-75
2021/01/04 05:33:35;;;;;;;6.43;2.08;;;;;;;;;;5078954;28;20115;-75
2021/01/04 05:36:13;;;;;;;11.27;2.97;;;;;;;;;;5059191;28;20054;-75
2021/01/04 05:38:57;;;;;;;9.57;2.35;;;;;;;;;;5058690;28;20479;-75
2021/01/04 05:41:37;;;;;;;8.35;2.40;;;;;;;;;;5062555;28;20040;-75
2021/01/04 05:44:09;;;;;;;6.93;2.25;;;;;;;;;;5060768;28;20552;-75
2021/01/04 05:46:47;;;;;;;8.60;2.30;;;;;;;;;;5061376;28;20040;-75
2021/01/04 05:49:14;;;;;;;9.00;1.90;;;;;;;;;;5057873;28;20036;-75
2021/01/04 05:51:41;;;;;;;9.45;2.20;;;;;;;;;;5056587;28;20033;-75
2021/01/04 05:54:08;;;;;;;9.77;1.92;;;;;;;;;;5053988;28;20124;-75
2021/01/04 05:56:34;;;;;;;13.18;3.15;;;;;;;;;;5074476;28;20132;-75
2021/01/04 05:59:11;;;;;;;7.68;1.67;;;;;;;;;;5091638;28;20048;-75
2021/01/04 06:01:39;;;;;;;10.10;1.55;;;;;;;;;;5066343;28;20155;-75
2021/01/04 06:04:08;;;;;;;9.60;2.03;;;;;;;;;;5055946;28;20087;-75
2021/01/04 06:06:41;;;;;;;5.80;1.20;;;;;;;;;;5057684;28;20418;-75
2021/01/04 06:09:09;;;;;;;7.78;1.92;;;;;;;;;;5060025;28;20049;-76
2021/01/04 06:11:46;;;;;;;8.25;2.35;;;;;;;;;;5059464;28;20120;-75
2021/01/04 06:14:13;;;;;;;7.28;1.58;;;;;;;;;;5089171;28;20048;-75
2021/01/04 06:16:43;;;;;;;5.80;1.65;;;;;;;;;;5058745;28;20063;-75
2021/01/04 06:19:10;;;;;;;9.88;1.67;;;;;;;;;;5063578;28;20119;-75
2021/01/04 06:21:46;;;;;;;6.93;1.52;;;;;;;;;;5063305;28;20052;-75
2021/01/04 06:24:23;;;;;;;8.25;1.83;;;;;;;;;;5061709;28;20496;-75
2021/01/04 06:26:51;;;;;;;10.27;2.10;;;;;;;;;;5057316;28;20059;-75
2021/01/04 06:29:28;;;;;;;8.63;1.77;;;;;;;;;;5059673;28;20124;-76
2021/01/04 06:31:54;;;;;;;7.88;2.30;;;;;;;;;;5062333;28;20037;-77
2021/01/04 06:34:23;;;;;;;11.38;2.20;;;;;;;;;;5062810;28;20044;-77
2021/01/04 06:36:52;;;;;;;8.40;2.75;;;;;;;;;;5061148;28;20102;-77
2021/01/04 06:39:19;;;;;;;10.93;2.17;;;;;;;;;;5059262;28;20044;-76
2021/01/04 06:41:46;;;;;;;9.68;2.05;;;;;;;;;;5064197;28;20734;-77
2021/01/04 06:44:15;;;;;;;8.55;2.15;;;;;;;;;;5063139;28;20040;-76
2021/01/04 06:46:42;;;;;;;8.73;1.95;;;;;;;;;;5058927;28;20419;-76
2021/01/04 06:49:15;;;;;;;11.55;2.67;;;;;;;;;;5057441;28;20044;-76
2021/01/04 06:52:12;;;;;;;5.90;1.42;;;;;;;;;;5069092;28;20044;-77
2021/01/04 06:54:48;;;;;;;7.88;2.03;;;;;;;;;;5059527;28;20053;-77
2021/01/04 06:57:23;;;;;;;9.90;2.75;;;;;;;;;;5072960;28;20029;-76
2021/01/04 07:00:08;;;;;;;9.20;2.25;;;;;;;;;;5056183;28;20088;-77
2021/01/04 07:02:51;;;;;;;6.13;2.00;;;;;;;;;;5072564;28;20127;-76
2021/01/04 07:05:25;;;;;;;8.77;2.00;;;;;;;;;;5056872;28;20045;-76
2021/01/04 07:08:09;;;;;;;8.82;1.92;;;;;;;;;;5060945;28;20127;-76
2021/01/04 07:10:46;;;;;;;7.40;1.95;;;;;;;;;;5055368;28;20132;-76
2021/01/04 07:13:29;;;;;;;7.03;1.90;;;;;;;;;;5058315;28;20059;-76
2021/01/04 07:16:06;;;;;;;15.68;2.17;;;;;;;;;;5056864;28;20106;-76
2021/01/04 07:18:36;;;;;;;8.77;1.77;;;;;;;;;;5059121;28;20045;-76
2021/01/04 07:21:18;;;;;;;9.70;1.80;;;;;;;;;;5052545;28;20568;-76
2021/01/04 07:23:47;;;;;;;8.48;1.65;;;;;;;;;;5060231;28;20547;-77
2021/01/04 07:26:30;;;;;;;10.85;1.50;;;;;;;;;;5064640;28;20040;-75
2021/01/04 07:29:12;;;;;;;5.82;1.67;;;;;;;;;;5061307;28;20041;-75
2021/01/04 07:31:40;;;;;;;9.32;2.15;;;;;;;;;;5057206;28;20040;-77
2021/01/04 07:34:16;;;;;;;8.18;1.92;;;;;;;;;;5057516;28;20127;-76
2021/01/04 07:36:50;;;;;;;10.35;1.75;;;;;;;;;;5067808;28;20051;-76
2021/01/04 07:39:38;;;;;;;8.38;2.63;;;;;;;;;;5069700;28;20510;-76
2021/01/04 07:42:16;;;;;;;3.75;1.58;;;;;;;;;;5063262;28;20037;-76
2021/01/04 07:44:45;;;;;;;3.47;1.20;;;;;;;;;;5064878;28;20052;-77
2021/01/04 07:47:18;;;;;;;8.05;1.50;;;;;;;;;;5057930;28;20052;-76
2021/01/04 07:49:56;;;;;;;4.47;1.20;;;;;;;;;;5069765;28;20040;-78
2021/01/04 07:52:48;;;;;;;4.32;1.75;;;;;;;;;;5064841;28;20438;-77
2021/01/04 07:55:41;;;;;;;3.35;1.30;;;;;;;;;;5070421;28;20047;-76
2021/01/04 07:58:20;;;;;;;5.20;1.20;;;;;;;;;;5087700;28;20040;-76
2021/01/04 08:01:02;;;;;;;4.57;1.42;;;;;;;;;;5095236;27;20475;-76
2021/01/04 08:03:43;;;;;;;3.03;1.27;;;;;;;;;;5068931;28;20040;-76
2021/01/04 08:06:23;;;;;;;6.13;2.17;;;;;;;;;;5067486;28;20045;-75
2021/01/04 08:08:56;;;;;;;5.85;1.83;;;;;;;;;;5060624;28;20119;-76
2021/01/04 08:11:34;;;;;;;5.13;1.70;;;;;;;;;;5069972;28;20086;-74
2021/01/04 08:14:19;;;;;;;6.50;1.70;;;;;;;;;;5081601;28;20105;-75
2021/01/04 08:16:51;;;;;;;5.78;1.45;;;;;;;;;;5069504;28;20545;-75
2021/01/04 08:19:18;;;;;;;7.63;1.35;;;;;;;;;;5071922;28;20460;-79
2021/01/04 08:21:54;;;;;;;4.85;1.30;;;;;;;;;;5062719;28;20052;-79
2021/01/04 08:24:41;;;;;;;9.75;2.13;;;;;;;;;;5081810;28;20155;-78
2021/01/04 08:27:22;;;;;;;4.28;1.52;;;;;;;;;;5068935;28;20499;-78
2021/01/04 08:29:54;;;;;;;4.15;1.35;;;;;;;;;;5063581;28;20052;-78
2021/01/04 08:32:24;;;;;;;4.72;1.38;;;;;;;;;;5063231;28;20048;-78
2021/01/04 08:34:51;;;;;;;3.70;1.08;;;;;;;;;;5066495;28;20047;-77
2021/01/04 08:37:20;;;;;;;3.85;1.40;;;;;;;;;;5063288;28;20052;-77
2021/01/04 08:39:49;;;;;;;3.78;1.40;;;;;;;;;;5066614;28;20159;-77
2021/01/04 08:42:29;;;;;;;3.05;1.23;;;;;;;;;;5066794;28;20048;-77
2021/01/04 08:44:58;;;;;;;9.40;1.40;;;;;;;;;;5067272;28;20048;-77
2021/01/04 08:47:28;;;;;;;3.85;1.20;;;;;;;;;;5070081;28;20054;-77
2021/01/04 08:50:06;;;;;;;3.70;1.35;;;;;;;;;;5067324;28;20131;-77
2021/01/04 08:52:39;;;;;;;5.97;1.23;;;;;;;;;;5069214;28;20193;-77
2021/01/04 08:55:05;;;;;;;4.28;1.42;;;;;;;;;;5069973;28;20472;-77
2021/01/04 08:57:40;;;;;;;2.95;1.55;;;;;;;;;;5067662;28;20043;-82
2021/01/04 09:00:16;;;;;;;8.27;1.67;;;;;;;;;;5070732;28;20041;-85
2021/01/04 09:02:43;;;;;;;5.65;1.45;;;;;;;;;;5071752;28;20480;-81
2021/01/04 09:05:13;;;;;;;5.78;1.50;;;;;;;;;;5065435;28;20040;-83
2021/01/04 09:07:48;;;;;;;5.22;1.48;;;;;;;;;;5071559;28;20197;-78
2021/01/04 09:10:18;;;;;;;5.55;1.23;;;;;;;;;;5065883;28;20040;-77
2021/01/04 09:12:46;;;;;;;6.20;1.52;;;;;;;;;;5066488;28;20054;-78
2021/01/04 09:15:14;;;;;;;8.57;1.58;;;;;;;;;;5069721;28;20036;-78
2021/01/04 09:17:50;;;;;;;6.43;1.50;;;;;;;;;;5086430;28;20106;-78
2021/01/04 09:20:36;;;;;;;4.88;1.30;;;;;;;;;;5070441;28;20041;-77
2021/01/04 09:23:05;;;;;;;6.38;1.60;;;;;;;;;;5069226;28;20089;-78
2021/01/04 09:25:43;;;;;;;6.03;1.45;;;;;;;;;;5066928;28;20071;-77
2021/01/04 09:28:10;;;;;;;5.90;1.50;;;;;;;;;;5068873;28;20056;-78
2021/01/04 09:30:36;;;;;;;5.85;1.70;;;;;;;;;;5069475;28;20453;-78
2021/01/04 09:33:05;;;;;;;6.18;1.60;;;;;;;;;;5065931;28;20119;-75
2021/01/04 09:35:31;;;;;;;6.05;1.98;;;;;;;;;;5069607;28;20119;-75
2021/01/04 09:38:03;;;;;;;8.65;1.55;;;;;;;;;;5054989;28;20123;-75
2021/01/04 09:40:30;;;;;;;6.75;1.73;;;;;;;;;;5069743;28;20435;-78
2021/01/04 09:43:07;;;;;;;7.68;1.98;;;;;;;;;;5071003;28;20036;-78
2021/01/04 09:45:34;;;;;;;3.40;1.08;;;;;;;;;;5070731;28;20042;-77
2021/01/04 09:48:02;;;;;;;6.00;1.30;;;;;;;;;;5071057;28;20055;-78
2021/01/04 09:50:30;;;;;;;4.22;1.40;;;;;;;;;;5066435;28;20058;-77
2021/01/04 09:53:00;;;;;;;3.88;1.33;;;;;;;;;;5069843;28;20048;-77
2021/01/04 09:55:33;;;;;;;2.95;1.10;;;;;;;;;;5067743;28;20037;-77
2021/01/04 09:58:00;;;;;;;3.45;0.95;;;;;;;;;;5072407;28;20043;-77
2021/01/04 10:00:29;;;;;;;4.80;1.20;;;;;;;;;;5073186;28;20039;-77
2021/01/04 10:03:05;;;;;;;3.72;1.25;;;;;;;;;;5072286;28;20429;-77
2021/01/04 10:05:37;;;;;;;7.00;2.35;;;;;;;;;;5076889;28;20400;-77
2021/01/04 10:08:05;;;;;;;4.72;1.33;;;;;;;;;;5067921;28;20080;-77
2021/01/04 10:10:31;;;;;;;7.65;1.85;;;;;;;;;;5067330;28;20052;-77
2021/01/04 10:13:05;;;;;;;8.38;1.60;;;;;;;;;;5075417;28;20036;-78
2021/01/04 10:15:32;;;;;;;3.28;1.40;;;;;;;;;;5077580;28;20121;-77
2021/01/04 10:18:05;;;;;;;5.90;1.60;;;;;;;;;;5065852;28;20048;-78
2021/01/04 10:20:39;;;;;;;4.03;1.50;;;;;;;;;;5067872;28;20068;-78
2021/01/04 10:23:05;;;;;;;;;;;;;;;;;;5074293;28;20206;-78
2021/01/04 10:25:36;;;;;;;4.60;1.58;;;;;;;;;;5067984;28;20026;-78
2021/01/04 10:28:03;;;;;;;8.00;1.70;;;;;;;;;;5060752;28;20102;-77
2021/01/04 10:30:31;;;;;;;7.45;1.92;;;;;;;;;;5064324;28;20036;-76
2021/01/04 10:33:05;;;;;;;10.95;1.73;;;;;;;;;;5067155;28;20102;-73
2021/01/04 10:35:31;;;;;;;6.65;1.90;;;;;;;;;;5065992;28;20451;-72
2021/01/04 10:38:04;;;;;;;4.93;1.63;;;;;;;;;;5056787;28;20040;-74
2021/01/04 10:40:40;;;;;;;4.88;1.40;;;;;;;;;;5067070;28;20043;-73
2021/01/04 10:43:07;;;;;;;7.30;1.50;;;;;;;;;;5068332;28;20150;-74
2021/01/04 10:45:36;;;;;;;4.95;1.42;;;;;;;;;;5067612;28;20048;-74
2021/01/04 10:48:19;;;;;;;5.22;1.52;;;;;;;;;;5063412;28;20033;-73
2021/01/04 10:50:47;;;;;;;7.03;2.40;;;;;;;;;;5065933;28;20083;-73
2021/01/04 10:53:31;;;;;;;6.75;1.60;;;;;;;;;;5068361;28;20041;-73
2021/01/04 10:56:06;;;;;;;7.32;1.50;;;;;;;;;;5067004;28;20048;-73
2021/01/04 10:58:36;;;;;;;4.32;1.50;;;;;;;;;;5070082;28;20053;-73
2021/01/04 11:01:07;;;;;;;8.70;2.05;;;;;;;;;;5070225;28;20541;-74
2021/01/04 11:03:34;;;;;;;9.02;1.67;;;;;;;;;;5069525;28;20047;-73
2021/01/04 11:06:01;;;;;;;14.27;2.80;;;;;;;;;;5069624;28;20032;-73
2021/01/04 11:08:29;;;;;;;7.88;1.52;;;;;;;;;;5067968;28;20140;-73
2021/01/04 11:10:59;;;;;;;5.43;1.60;;;;;;;;;;5068254;28;20159;-73
2021/01/04 11:13:31;;;;;;;5.05;1.58;;;;;;;;;;5070476;28;20028;-74
2021/01/04 11:16:05;;;;;;;9.27;1.83;;;;;;;;;;5071293;28;20058;-73
2021/01/04 11:18:32;;;;;;;9.95;2.00;;;;;;;;;;5069202;28;20113;-72
2021/01/04 11:20:58;;;;;;;9.52;1.80;;;;;;;;;;5070047;28;20033;-73
2021/01/04 11:23:25;;;;;;;6.70;2.05;;;;;;;;;;5069426;28;20520;-73
2021/01/04 11:25:51;;;;;;;5.18;1.38;;;;;;;;;;5071207;28;20044;-73
2021/01/04 11:28:17;;;;;;;3.53;1.13;;;;;;;;;;5072922;28;20048;-73
2021/01/04 11:30:44;;;;;;;7.18;2.45;;;;;;;;;;5064720;28;20043;-72
2021/01/04 11:33:14;;;;;;;4.57;1.63;;;;;;;;;;5069574;28;20435;-73
2021/01/04 11:35:41;;;;;;;6.00;1.50;;;;;;;;;;5069733;28;20048;-73
2021/01/04 11:38:07;;;;;;;3.97;1.33;;;;;;;;;;5067945;28;20127;-73
2021/01/04 11:40:36;;;;;;;5.63;1.40;;;;;;;;;;5067950;28;20091;-73
2021/01/04 11:43:03;;;;;;;5.20;1.40;;;;;;;;;;5056141;28;20068;-64
2021/01/04 11:45:29;;;;;;;7.60;1.40;;;;;;;;;;5069939;28;20109;-63
2021/01/04 11:47:55;;;;;;;7.35;1.55;;;;;;;;;;5071859;28;20048;-63
2021/01/04 11:50:22;;;;;;;7.07;1.95;;;;;;;;;;5073792;28;20087;-64
2021/01/04 11:52:48;;;;;;;5.10;1.38;;;;;;;;;;5068955;28;20046;-63
2021/01/04 11:55:16;;;;;;;7.35;1.67;;;;;;;;;;5071761;28;20072;-64
2021/01/04 11:57:43;;;;;;;5.13;1.45;;;;;;;;;;5068776;28;20047;-63
2021/01/04 12:00:13;;;;;;;10.45;1.80;;;;;;;;;;5070277;28;20051;-63
2021/01/04 12:02:40;;;;;;;6.85;1.40;;;;;;;;;;5073595;28;20097;-63
2021/01/04 12:05:07;;;;;;;7.07;2.55;;;;;;;;;;5071670;28;20139;-63
2021/01/04 12:07:34;;;;;;;3.42;1.25;;;;;;;;;;5069462;28;20129;-63
2021/01/04 12:10:00;;;;;;;2.95;1.42;;;;;;;;;;5068019;28;20551;-63
2021/01/04 12:12:27;;;;;;;3.75;1.38;;;;;;;;;;5069842;28;20350;-63
2021/01/04 12:14:53;;;;;;;5.53;1.75;;;;;;;;;;5067601;28;20131;-64
2021/01/04 12:17:21;;;;;;;5.70;1.70;;;;;;;;;;5074058;28;20627;-63
2021/01/04 12:19:48;;;;;;;5.57;1.38;;;;;;;;;;5068887;28;20052;-63
2021/01/04 12:22:15;;;;;;;8.20;1.92;;;;;;;;;;5070992;28;20049;-63
2021/01/04 12:24:44;;;;;;;4.75;1.10;;;;;;;;;;5069114;28;20381;-63
2021/01/04 12:27:12;;;;;;;6.47;1.35;;;;;;;;;;5068499;28;20048;-63
2021/01/04 12:29:42;;;;;;;4.60;1.75;;;;;;;;;;5068462;28;20391;-63
2021/01/04 12:32:09;;;;;;;4.82;1.38;;;;;;;;;;5093334;28;20089;-63
2021/01/04 12:34:35;;;;;;;8.23;1.85;;;;;;;;;;5066353;28;20040;-64
2021/01/04 12:37:02;;;;;;;8.73;1.80;;;;;;;;;;5065984;28;20072;-64
2021/01/04 12:39:29;;;;;;;5.38;1.58;;;;;;;;;;5066369;28;20349;-64
2021/01/04 12:41:55;;;;;;;6.22;1.55;;;;;;;;;;5068211;28;20052;-64
2021/01/04 12:44:21;;;;;;;5.43;1.58;;;;;;;;;;5070376;28;20086;-73
2021/01/04 12:46:49;;;;;;;4.07;1.33;;;;;;;;;;5073699;28;20055;-64
2021/01/04 12:49:17;;;;;;;5.90;1.33;;;;;;;;;;5070034;28;20047;-63
2021/01/04 12:51:46;;;;;;;7.95;1.67;;;;;;;;;;5068679;28;20036;-64
2021/01/04 12:54:14;;;;;;;4.18;1.58;;;;;;;;;;5067794;28;20465;-63
2021/01/04 12:56:44;;;;;;;5.82;1.77;;;;;;;;;;5069172;28;20415;-63
2021/01/04 12:59:12;;;;;;;7.32;1.23;;;;;;;;;;5068749;28;20082;-63
2021/01/04 13:01:39;;;;;;;6.88;1.38;;;;;;;;;;5067178;28;20097;-63
2021/01/04 13:04:05;;;;;;;6.63;2.47;;;;;;;;;;5066432;28;20464;-64
2021/01/04 13:06:33;;;;;;;5.47;1.33;;;;;;;;;;5068637;28;20041;-64
2021/01/04 13:09:00;;;;;;;3.83;1.33;;;;;;;;;;5071167;28;20048;-64
2021/01/04 13:11:27;;;;;;;6.15;1.48;;;;;;;;;;5067265;28;20041;-64
2021/01/04 13:13:54;;;;;;;8.02;1.33;;;;;;;;;;5068715;28;20051;-63
2021/01/04 13:16:20;;;;;;;7.60;1.63;;;;;;;;;;5070930;28;20072;-63
2021/01/04 13:18:46;;;;;;;4.72;1.08;;;;;;;;;;5068637;28;20467;-63
2021/01/04 13:21:18;;;;;;;2.75;1.05;;;;;;;;;;5072861;28;20083;-63
2021/01/04 13:23:45;;;;;;;3.83;1.30;;;;;;;;;;5067158;28;20060;-63
2021/01/04 13:26:11;;;;;;;5.95;1.90;;;;;;;;;;5068194;28;20039;-64
2021/01/04 13:28:37;;;;;;;8.15;1.73;;;;;;;;;;5069093;28;20078;-63
2021/01/04 13:31:05;;;;;;;3.67;1.52;;;;;;;;;;5068024;28;20036;-63
2021/01/04 13:33:31;;;;;;;5.13;1.67;;;;;;;;;;5069518;28;20048;-63
2021/01/04 13:35:57;;;;;;;8.20;1.35;;;;;;;;;;5066971;28;20388;-64
2021/01/04 13:38:26;;;;;;;4.80;1.30;;;;;;;;;;5066644;28;20467;-63
2021/01/04 13:40:53;;;;;;;3.97;1.38;;;;;;;;;;5072322;28;20136;-64
2021/01/04 13:43:20;;;;;;;5.22;1.50;;;;;;;;;;5071735;28;20489;-64
2021/01/04 13:45:48;;;;;;;4.93;1.33;;;;;;;;;;5068851;28;20044;-64
2021/01/04 13:48:15;;;;;;;5.03;1.23;;;;;;;;;;5070926;28;20139;-65
2021/01/04 13:50:43;;;;;;;6.05;1.48;;;;;;;;;;5069411;28;20056;-64
2021/01/04 13:53:10;;;;;;;4.57;1.73;;;;;;;;;;5071247;28;20089;-64
2021/01/04 13:55:37;;;;;;;2.83;1.17;;;;;;;;;;5070589;28;20041;-64
2021/01/04 13:58:04;;;;;;;3.22;1.70;;;;;;;;;;5067850;28;20122;-64
2021/01/04 14:00:31;;;;;;;9.38;1.55;;;;;;;;;;5069351;28;20040;-64
2021/01/04 14:02:57;;;;;;;4.03;1.33;;;;;;;;;;5073055;28;20202;-63
2021/01/04 14:05:29;;;;;;;9.07;1.48;;;;;;;;;;5068559;28;20037;-64
2021/01/04 14:07:56;;;;;;;9.55;1.50;;;;;;;;;;5069587;28;20075;-63
2021/01/04 14:10:22;;;;;;;6.90;1.83;;;;;;;;;;5071570;28;20041;-64
2021/01/04 14:12:49;;;;;;;7.15;1.50;;;;;;;;;;5070870;28;20044;-64
2021/01/04 14:15:15;;;;;;;3.22;1.30;;;;;;;;;;5071245;28;20941;-64
2021/01/04 14:17:42;;;;;;;5.13;1.17;;;;;;;;;;5065710;28;20045;-64
2021/01/04 14:20:09;;;;;;;6.65;1.17;;;;;;;;;;5068311;28;20135;-64
2021/01/04 14:22:35;;;;;;;8.48;1.50;;;;;;;;;;5069690;28;20047;-63
2021/01/04 14:25:03;;;;;;;5.47;1.77;;;;;;;;;;5075081;28;20047;-63
2021/01/04 14:27:29;;;;;;;4.45;1.25;;;;;;;;;;5069039;28;20041;-64
2021/01/04 14:29:56;;;;;;;6.63;1.10;;;;;;;;;;5073949;28;20044;-64
2021/01/04 14:32:25;;;;;;;5.00;1.30;;;;;;;;;;5069159;28;20036;-64
2021/01/04 14:34:52;;;;;;;3.05;1.10;;;;;;;;;;5073842;28;20119;-64
2021/01/04 14:37:19;;;;;;;4.53;1.45;;;;;;;;;;5069145;28;20068;-64
2021/01/04 14:39:46;;;;;;;5.88;1.35;;;;;;;;;;5066036;28;20066;-64
2021/01/04 14:42:18;;;;;;;4.85;1.48;;;;;;;;;;5070423;28;20036;-64
2021/01/04 14:44:44;;;;;;;4.60;1.35;;;;;;;;;;5063460;28;20134;-64
2021/01/04 14:47:10;;;;;;;5.32;1.50;;;;;;;;;;5061538;28;20071;-64
2021/01/04 14:49:38;;;;;;;5.03;1.23;;;;;;;;;;5065291;28;20480;-64
2021/01/04 14:52:05;;;;;;;9.27;1.20;;;;;;;;;;5071689;28;20472;-63
2021/01/04 14:54:32;;;;;;;4.22;1.02;;;;;;;;;;5069706;28;20052;-64
2021/01/04 14:57:00;;;;;;;3.58;1.42;;;;;;;;;;5074581;28;20128;-64
2021/01/04 14:59:27;;;;;;;4.40;1.00;;;;;;;;;;5071367;28;20055;-64
2021/01/04 15:01:54;;;;;;;5.45;1.30;;;;;;;;;;5069753;28;20033;-64